Terminal Aerodrome Forecast
Issued by NWS

Current Version | Previous Version | Text Only | Print | Product List | Glossary On
Versions: 1 2 3 4 5 6 7 8 9 10 11 12 13
000
FTUS43 KGRR 271140
TAFLAN
TAF
KLAN 271140Z 2712/2812 19015G19KT P6SM FEW045 BKN150
     FM271600 18013G24KT P6SM VCTS OVC025CB
     FM272300 25013G25KT P6SM SCT025
     FM280400 25007KT P6SM BKN030
     FM280700 25011KT P6SM BKN030
     FM280900 24008KT P6SM BKN050
     FM281100 21008KT P6SM BKN100=

USA.gov is the U.S. government's official web portal to all federal, state and local government web resources and services.